createdAt,value
2019-01-24T00:00:16.355Z,-4.78
2019-01-24T00:01:22.774Z,-4.81
2019-01-24T00:02:29.208Z,-4.85
2019-01-24T00:03:35.511Z,-4.92
2019-01-24T00:04:41.469Z,-4.96
2019-01-24T00:05:47.814Z,-4.97
2019-01-24T00:06:54.127Z,-4.96
2019-01-24T00:08:00.143Z,-4.94
2019-01-24T00:09:05.832Z,-5.03
2019-01-24T00:10:11.544Z,-5.00
2019-01-24T00:11:17.721Z,-5.02
2019-01-24T00:12:24.094Z,-5.05
2019-01-24T00:13:30.471Z,-5.05
2019-01-24T00:14:36.885Z,-5.06
2019-01-24T00:15:42.874Z,-5.07
2019-01-24T00:16:49.233Z,-5.10
2019-01-24T00:17:55.639Z,-5.19
2019-01-24T00:19:02.005Z,-5.29
2019-01-24T00:20:07.660Z,-5.39
2019-01-24T00:21:13.975Z,-5.47
2019-01-24T00:22:20.336Z,-5.53
2019-01-24T00:23:26.689Z,-5.49
2019-01-24T00:24:33.084Z,-5.51
2019-01-24T00:25:39.426Z,-5.51
2019-01-24T00:26:45.761Z,-5.50
2019-01-24T00:27:52.115Z,-5.51
2019-01-24T00:28:58.510Z,-5.55
2019-01-24T00:30:04.183Z,-5.59
2019-01-24T00:31:10.538Z,-5.57
2019-01-24T00:32:16.961Z,-5.57
2019-01-24T00:33:23.300Z,-5.62
2019-01-24T00:34:29.624Z,-5.65
2019-01-24T00:35:36.043Z,-5.65
2019-01-24T00:36:42.340Z,-5.66
2019-01-24T00:37:48.693Z,-5.65
2019-01-24T00:38:55.103Z,-5.70
2019-01-24T00:40:01.464Z,-5.76
2019-01-24T00:41:07.836Z,-5.76
2019-01-24T00:42:14.178Z,-5.81
2019-01-24T00:43:20.586Z,-5.88
2019-01-24T00:44:27.011Z,-5.90
2019-01-24T00:45:33.329Z,-5.94
2019-01-24T00:46:39.728Z,-6.03
2019-01-24T00:47:46.084Z,-6.05
2019-01-24T00:48:52.480Z,-5.99
2019-01-24T00:49:58.783Z,-5.99
2019-01-24T00:51:05.142Z,-5.94
2019-01-24T00:52:11.441Z,-5.99
2019-01-24T00:53:17.779Z,-6.07
2019-01-24T00:54:24.111Z,-6.10
2019-01-24T00:55:30.428Z,-6.14
2019-01-24T00:56:36.755Z,-6.23
2019-01-24T00:57:42.379Z,-6.26
2019-01-24T00:58:48.730Z,-6.22
2019-01-24T00:59:55.117Z,-6.26
2019-01-24T01:01:00.757Z,-6.28
2019-01-24T01:02:07.133Z,-6.22
2019-01-24T01:03:13.495Z,-6.30
2019-01-24T01:04:19.503Z,-6.27
2019-01-24T01:05:28.733Z,-6.32
2019-01-24T01:06:35.045Z,-6.37
2019-01-24T01:07:40.688Z,-6.36
2019-01-24T01:08:47.573Z,-6.35
2019-01-24T01:09:54.606Z,-6.33
2019-01-24T01:11:00.654Z,-6.28
2019-01-24T01:12:06.297Z,-6.35
2019-01-24T01:13:12.693Z,-6.46
2019-01-24T01:14:19.025Z,-6.51
2019-01-24T01:15:25.135Z,-6.57
2019-01-24T01:16:31.670Z,-6.67
2019-01-24T01:17:38.028Z,-6.77
2019-01-24T01:18:44.418Z,-6.83
2019-01-24T01:19:50.740Z,-6.85
2019-01-24T01:20:56.394Z,-6.84
2019-01-24T01:22:02.378Z,-6.86
2019-01-24T01:23:08.293Z,-6.87
2019-01-24T01:24:14.721Z,-6.87
2019-01-24T01:25:20.419Z,-6.86
2019-01-24T01:26:26.769Z,-6.84
2019-01-24T01:27:32.447Z,-6.81
2019-01-24T01:28:38.478Z,-6.81
2019-01-24T01:29:44.495Z,-6.82
2019-01-24T01:30:50.800Z,-6.77
2019-01-24T01:31:56.845Z,-6.81
2019-01-24T01:33:03.198Z,-6.83
2019-01-24T01:34:09.217Z,-6.87
2019-01-24T01:35:14.834Z,-6.88
2019-01-24T01:36:21.169Z,-6.92
2019-01-24T01:37:27.540Z,-6.93
2019-01-24T01:38:33.923Z,-6.93
2019-01-24T01:39:40.237Z,-6.88
2019-01-24T01:40:46.539Z,-6.78
2019-01-24T01:41:52.887Z,-6.77
2019-01-24T01:42:59.196Z,-6.78
2019-01-24T01:44:04.862Z,-6.87
2019-01-24T01:45:11.573Z,-6.80
2019-01-24T01:46:17.907Z,-6.83
2019-01-24T01:47:24.610Z,-6.77
2019-01-24T01:48:30.976Z,-6.83
2019-01-24T01:49:37.011Z,-6.92
2019-01-24T01:50:43.533Z,-6.92
2019-01-24T01:51:49.492Z,-6.93
2019-01-24T01:52:55.480Z,-6.90
2019-01-24T01:54:01.805Z,-6.95
2019-01-24T01:55:07.486Z,-6.94
2019-01-24T01:56:13.852Z,-6.95
2019-01-24T01:57:20.544Z,-6.99
2019-01-24T01:58:26.885Z,-7.08
2019-01-24T01:59:33.266Z,-7.03
2019-01-24T02:00:38.947Z,-7.00
2019-01-24T02:01:44.248Z,-6.98
2019-01-24T02:02:49.871Z,-6.98
2019-01-24T02:03:55.907Z,-6.96
2019-01-24T02:05:02.269Z,-6.97
2019-01-24T02:06:08.662Z,-6.94
2019-01-24T02:07:14.984Z,-6.89
2019-01-24T02:08:21.322Z,-6.84
2019-01-24T02:09:27.713Z,-6.78
2019-01-24T02:10:34.114Z,-6.77
2019-01-24T02:11:40.498Z,-6.73
2019-01-24T02:12:47.218Z,-6.75
2019-01-24T02:13:53.254Z,-6.71
2019-01-24T02:14:59.220Z,-6.69
2019-01-24T02:16:05.230Z,-6.67
2019-01-24T02:17:11.619Z,-6.64
2019-01-24T02:18:17.290Z,-6.64
2019-01-24T02:19:23.694Z,-6.65
2019-01-24T02:20:30.022Z,-6.62
2019-01-24T02:21:36.383Z,-6.63
2019-01-24T02:22:42.430Z,-6.64
2019-01-24T02:23:49.774Z,-6.59
2019-01-24T02:24:56.165Z,-6.59
2019-01-24T02:26:02.499Z,-6.58
2019-01-24T02:27:08.827Z,-6.54
2019-01-24T02:28:15.242Z,-6.51
2019-01-24T02:29:21.667Z,-6.46
2019-01-24T02:30:27.389Z,-6.41
2019-01-24T02:31:33.372Z,-6.39
2019-01-24T02:32:39.709Z,-6.30
2019-01-24T02:33:46.083Z,-6.27
2019-01-24T02:34:52.458Z,-6.23
2019-01-24T02:35:58.874Z,-6.27
2019-01-24T02:37:04.532Z,-6.32
2019-01-24T02:38:10.885Z,-6.30
2019-01-24T02:39:17.269Z,-6.28
2019-01-24T02:40:23.064Z,-6.23
2019-01-24T02:41:29.440Z,-6.27
2019-01-24T02:42:35.472Z,-6.23
2019-01-24T02:43:41.848Z,-6.18
2019-01-24T02:44:48.217Z,-6.20
2019-01-24T02:45:54.674Z,-6.17
2019-01-24T02:47:01.038Z,-6.14
2019-01-24T02:48:07.406Z,-6.13
2019-01-24T02:49:13.824Z,-6.14
2019-01-24T02:50:19.511Z,-6.07
2019-01-24T02:51:25.830Z,-6.04
2019-01-24T02:52:32.138Z,-5.99
2019-01-24T02:53:38.448Z,-5.98
2019-01-24T02:54:44.852Z,-5.96
2019-01-24T02:55:51.483Z,-5.93
2019-01-24T02:56:57.872Z,-5.97
2019-01-24T02:58:03.892Z,-5.92
2019-01-24T02:59:10.351Z,-5.91
2019-01-24T03:00:16.017Z,-5.86
2019-01-24T03:01:22.445Z,-5.84
2019-01-24T03:02:28.650Z,-5.77
2019-01-24T03:03:35.069Z,-5.67
2019-01-24T03:04:41.429Z,-5.62
2019-01-24T03:05:47.816Z,-5.66
2019-01-24T03:06:54.262Z,-5.68
2019-01-24T03:08:00.659Z,-5.65
2019-01-24T03:09:06.333Z,-5.62
2019-01-24T03:10:12.065Z,-5.64
2019-01-24T03:11:18.513Z,-5.66
2019-01-24T03:12:24.871Z,-5.60
2019-01-24T03:13:31.215Z,-5.64
2019-01-24T03:14:37.594Z,-5.64
2019-01-24T03:15:44.029Z,-5.65
2019-01-24T03:16:50.095Z,-5.66
2019-01-24T03:17:56.177Z,-5.64
2019-01-24T03:19:02.607Z,-5.60
2019-01-24T03:20:08.337Z,-5.54
2019-01-24T03:21:14.715Z,-5.52
2019-01-24T03:22:20.741Z,-5.51
2019-01-24T03:23:27.168Z,-5.54
2019-01-24T03:24:33.602Z,-5.57
2019-01-24T03:25:40.160Z,-5.54
2019-01-24T03:26:46.271Z,-5.54
2019-01-24T03:27:52.692Z,-5.53
2019-01-24T03:28:59.118Z,-5.52
2019-01-24T03:30:11.149Z,-5.53
2019-01-24T03:31:17.532Z,-5.54
2019-01-24T03:32:23.979Z,-5.52
2019-01-24T03:33:30.373Z,-5.52
2019-01-24T03:34:36.791Z,-5.52
2019-01-24T03:35:42.817Z,-5.49
2019-01-24T03:36:49.258Z,-5.51
2019-01-24T03:37:55.228Z,-5.48
2019-01-24T03:39:01.618Z,-5.47
2019-01-24T03:40:06.961Z,-5.48
2019-01-24T03:41:13.069Z,-5.48
2019-01-24T03:42:19.094Z,-5.47
2019-01-24T03:43:25.178Z,-5.48
2019-01-24T03:44:31.598Z,-5.46
2019-01-24T03:45:38.102Z,-5.42
2019-01-24T03:46:44.548Z,-5.44
2019-01-24T03:47:51.123Z,-5.43
2019-01-24T03:48:57.624Z,-5.43
2019-01-24T03:50:03.428Z,-5.41
2019-01-24T03:51:09.811Z,-5.41
2019-01-24T03:52:16.176Z,-5.39
2019-01-24T03:53:22.520Z,-5.37
2019-01-24T03:54:28.876Z,-5.33
2019-01-24T03:55:35.256Z,-5.37
2019-01-24T03:56:41.609Z,-5.41
2019-01-24T03:57:47.303Z,-5.41
2019-01-24T03:58:53.716Z,-5.40
2019-01-24T04:00:00.367Z,-5.38
2019-01-24T04:01:06.592Z,-5.38
2019-01-24T04:02:12.702Z,-5.34
2019-01-24T04:03:18.736Z,-5.35
2019-01-24T04:04:24.443Z,-5.35
2019-01-24T04:05:30.879Z,-5.34
2019-01-24T04:06:37.412Z,-5.34
2019-01-24T04:07:43.791Z,-5.34
2019-01-24T04:08:50.122Z,-5.29
2019-01-24T04:09:56.607Z,-5.30
2019-01-24T04:11:03.053Z,-5.31
2019-01-24T04:12:09.428Z,-5.32
2019-01-24T04:13:15.822Z,-5.25
2019-01-24T04:14:21.865Z,-5.26
2019-01-24T04:15:28.317Z,-5.27
2019-01-24T04:16:34.791Z,-5.26
2019-01-24T04:17:40.816Z,-5.26
2019-01-24T04:18:47.246Z,-5.25
2019-01-24T04:19:53.644Z,-5.25
2019-01-24T04:20:59.982Z,-5.25
2019-01-24T04:22:06.358Z,-5.23
2019-01-24T04:23:12.749Z,-5.21
2019-01-24T04:24:19.191Z,-5.19
2019-01-24T04:25:25.314Z,-5.20
2019-01-24T04:26:31.810Z,-5.19
2019-01-24T04:27:38.263Z,-5.19
2019-01-24T04:28:44.717Z,-5.16
2019-01-24T04:29:51.010Z,-5.13
2019-01-24T04:30:57.427Z,-5.13
2019-01-24T04:32:03.804Z,-5.15
2019-01-24T04:33:10.222Z,-5.17
2019-01-24T04:34:16.643Z,-5.18
2019-01-24T04:35:23.026Z,-5.18
2019-01-24T04:36:29.512Z,-5.17
2019-01-24T04:37:35.981Z,-5.17
2019-01-24T04:38:42.416Z,-5.17
2019-01-24T04:39:48.867Z,-5.16
2019-01-24T04:40:55.339Z,-5.16
2019-01-24T04:42:01.411Z,-5.16
2019-01-24T04:43:07.738Z,-5.15
2019-01-24T04:44:14.139Z,-5.15
2019-01-24T04:45:19.828Z,-5.14
2019-01-24T04:46:26.210Z,-5.16
2019-01-24T04:47:32.640Z,-5.14
2019-01-24T04:48:38.698Z,-5.13
2019-01-24T04:49:45.125Z,-5.13
2019-01-24T04:50:51.613Z,-5.09
2019-01-24T04:51:57.982Z,-5.03
2019-01-24T04:53:04.500Z,-5.05
2019-01-24T04:54:11.087Z,-5.06
2019-01-24T04:55:16.786Z,-5.05
2019-01-24T04:56:23.229Z,-5.04
2019-01-24T04:57:29.618Z,-4.96
2019-01-24T04:58:36.051Z,-4.99
2019-01-24T04:59:42.221Z,-5.01
2019-01-24T05:00:48.661Z,-5.01
2019-01-24T05:01:55.308Z,-4.99
2019-01-24T05:03:01.800Z,-4.97
2019-01-24T05:04:08.648Z,-4.99
2019-01-24T05:05:15.462Z,-4.97
2019-01-24T05:06:21.857Z,-4.98
2019-01-24T05:07:27.889Z,-4.95
2019-01-24T05:08:34.244Z,-4.96
2019-01-24T05:09:40.577Z,-4.96
2019-01-24T05:10:46.648Z,-4.95
2019-01-24T05:11:52.981Z,-4.84
2019-01-24T05:12:59.336Z,-4.87
2019-01-24T05:14:05.045Z,-4.92
2019-01-24T05:15:10.713Z,-4.93
2019-01-24T05:16:17.114Z,-4.92
2019-01-24T05:17:23.559Z,-4.93
2019-01-24T05:18:29.608Z,-4.89
2019-01-24T05:19:35.997Z,-4.88
2019-01-24T05:20:42.381Z,-4.89
2019-01-24T05:21:48.746Z,-4.86
2019-01-24T05:22:55.111Z,-4.84
2019-01-24T05:24:01.539Z,-4.84
2019-01-24T05:25:07.990Z,-4.85
2019-01-24T05:26:14.365Z,-4.88
2019-01-24T05:27:20.798Z,-4.87
2019-01-24T05:28:27.198Z,-4.84
2019-01-24T05:29:33.600Z,-4.81
2019-01-24T05:30:40.062Z,-4.81
2019-01-24T05:31:46.606Z,-4.83
2019-01-24T05:32:53.206Z,-4.83
2019-01-24T05:33:59.589Z,-4.78
2019-01-24T05:35:05.305Z,-4.77
2019-01-24T05:36:11.663Z,-4.81
2019-01-24T05:37:18.092Z,-4.81
2019-01-24T05:38:24.546Z,-4.83
2019-01-24T05:39:30.988Z,-4.84
2019-01-24T05:40:37.394Z,-4.83
2019-01-24T05:41:43.862Z,-4.84
2019-01-24T05:42:50.222Z,-4.83
2019-01-24T05:43:56.727Z,-4.82
2019-01-24T05:45:02.819Z,-4.84
2019-01-24T05:46:09.228Z,-4.81
2019-01-24T05:47:15.700Z,-4.81
2019-01-24T05:48:22.168Z,-4.80
2019-01-24T05:49:28.764Z,-4.78
2019-01-24T05:50:35.184Z,-4.79
2019-01-24T05:51:41.576Z,-4.75
2019-01-24T05:52:47.916Z,-4.71
2019-01-24T05:53:54.359Z,-4.74
2019-01-24T05:55:00.780Z,-4.74
2019-01-24T05:56:07.278Z,-4.70
2019-01-24T05:57:13.587Z,-4.67
2019-01-24T05:58:19.939Z,-4.65
2019-01-24T05:59:26.372Z,-4.64
2019-01-24T06:00:32.598Z,-4.61
2019-01-24T06:01:38.704Z,-4.59
2019-01-24T06:02:44.734Z,-4.61
2019-01-24T06:03:51.146Z,-4.61
2019-01-24T06:04:57.194Z,-4.60
2019-01-24T06:06:03.259Z,-4.59
2019-01-24T06:07:09.600Z,-4.60
2019-01-24T06:08:16.355Z,-4.55
2019-01-24T06:09:22.727Z,-4.59
2019-01-24T06:10:29.101Z,-4.58
2019-01-24T06:11:35.443Z,-4.57
2019-01-24T06:12:41.104Z,-4.55
2019-01-24T06:13:47.455Z,-4.55
2019-01-24T06:14:53.762Z,-4.55
2019-01-24T06:16:00.127Z,-4.55
2019-01-24T06:17:06.455Z,-4.54
2019-01-24T06:18:12.817Z,-4.54
2019-01-24T06:19:19.208Z,-4.53
2019-01-24T06:20:25.585Z,-4.51
2019-01-24T06:21:31.656Z,-4.49
2019-01-24T06:22:38.017Z,-4.49
2019-01-24T06:23:44.333Z,-4.49
2019-01-24T06:24:51.224Z,-4.46
2019-01-24T06:25:57.590Z,-4.42
2019-01-24T06:27:03.581Z,-4.39
2019-01-24T06:28:10.000Z,-4.37
2019-01-24T06:29:16.996Z,-4.28
2019-01-24T06:30:22.652Z,-4.27
2019-01-24T06:31:29.018Z,-4.27
2019-01-24T06:32:35.410Z,-4.26
2019-01-24T06:33:41.883Z,-4.24
2019-01-24T06:34:48.387Z,-4.22
2019-01-24T06:35:54.776Z,-4.21
2019-01-24T06:37:01.135Z,-4.19
2019-01-24T06:38:07.498Z,-4.14
2019-01-24T06:39:13.859Z,-4.12
2019-01-24T06:40:19.834Z,-4.13
2019-01-24T06:41:26.234Z,-4.11
2019-01-24T06:42:32.647Z,-4.08
2019-01-24T06:43:39.025Z,-4.06
2019-01-24T06:44:45.361Z,-4.04
2019-01-24T06:45:52.643Z,-4.05
2019-01-24T06:46:59.010Z,-4.01
2019-01-24T06:48:04.698Z,-4.01
2019-01-24T06:49:11.068Z,-4.00
2019-01-24T06:50:16.694Z,-4.01
2019-01-24T06:51:23.071Z,-4.00
2019-01-24T06:52:29.399Z,-3.99
2019-01-24T06:53:35.759Z,-3.98
2019-01-24T06:54:42.816Z,-3.95
2019-01-24T06:55:49.160Z,-3.92
2019-01-24T06:56:55.166Z,-3.89
2019-01-24T06:58:01.557Z,-3.87
2019-01-24T06:59:07.950Z,-3.85
2019-01-24T07:00:13.562Z,-3.73
2019-01-24T07:01:19.943Z,-3.81
2019-01-24T07:02:26.302Z,-3.86
2019-01-24T07:03:32.614Z,-3.83
2019-01-24T07:04:38.983Z,-3.81
2019-01-24T07:05:45.364Z,-3.74
2019-01-24T07:06:51.794Z,-3.79
2019-01-24T07:07:58.103Z,-3.82
2019-01-24T07:09:03.562Z,-3.86
2019-01-24T07:10:09.220Z,-3.87
2019-01-24T07:11:15.580Z,-3.87
2019-01-24T07:12:21.936Z,-3.86
2019-01-24T07:13:29.804Z,-3.85
2019-01-24T07:14:37.463Z,-3.85
2019-01-24T07:15:43.885Z,-3.83
2019-01-24T07:16:50.352Z,-3.83
2019-01-24T07:17:56.366Z,-3.87
2019-01-24T07:19:02.743Z,-3.86
2019-01-24T07:20:08.501Z,-3.84
2019-01-24T07:21:14.898Z,-3.84
2019-01-24T07:22:21.289Z,-3.84
2019-01-24T07:23:27.613Z,-3.83
2019-01-24T07:24:33.958Z,-3.82
2019-01-24T07:25:40.384Z,-3.82
2019-01-24T07:26:46.775Z,-3.82
2019-01-24T07:27:52.494Z,-3.82
2019-01-24T07:28:58.811Z,-3.80
2019-01-24T07:30:08.325Z,-3.80
2019-01-24T07:31:14.705Z,-3.80
2019-01-24T07:32:21.178Z,-3.80
2019-01-24T07:33:27.764Z,-3.80
2019-01-24T07:34:34.937Z,-3.79
2019-01-24T07:35:41.463Z,-3.73
2019-01-24T07:36:47.570Z,-3.74
2019-01-24T07:37:53.907Z,-3.77
2019-01-24T07:39:00.325Z,-3.78
2019-01-24T07:40:05.993Z,-3.77
2019-01-24T07:41:12.361Z,-3.76
2019-01-24T07:42:18.715Z,-3.77
2019-01-24T07:43:25.073Z,-3.76
2019-01-24T07:44:31.504Z,-3.75
2019-01-24T07:45:37.184Z,-3.74
2019-01-24T07:46:43.567Z,-3.75
2019-01-24T07:47:49.924Z,-3.73
2019-01-24T07:48:56.314Z,-3.73
2019-01-24T07:50:02.306Z,-3.75
2019-01-24T07:51:08.689Z,-3.75
2019-01-24T07:52:15.073Z,-3.74
2019-01-24T07:53:21.457Z,-3.73
2019-01-24T07:54:27.787Z,-3.73
2019-01-24T07:55:34.912Z,-3.72
2019-01-24T07:56:41.954Z,-3.72
2019-01-24T07:57:48.053Z,-3.65
2019-01-24T07:58:54.381Z,-3.68
2019-01-24T08:00:00.750Z,-3.62
2019-01-24T08:01:07.151Z,-3.65
2019-01-24T08:02:13.528Z,-3.66
2019-01-24T08:03:19.919Z,-3.67
2019-01-24T08:04:26.279Z,-3.68
2019-01-24T08:05:32.641Z,-3.67
2019-01-24T08:06:39.011Z,-3.67
2019-01-24T08:07:44.675Z,-3.67
2019-01-24T08:08:51.088Z,-3.67
2019-01-24T08:09:57.478Z,-3.66
2019-01-24T08:11:03.872Z,-3.63
2019-01-24T08:12:10.227Z,-3.62
2019-01-24T08:13:16.628Z,-3.55
2019-01-24T08:14:23.427Z,-3.51
2019-01-24T08:15:29.455Z,-3.55
2019-01-24T08:16:35.478Z,-3.55
2019-01-24T08:17:41.761Z,-3.55
2019-01-24T08:18:50.030Z,-3.57
2019-01-24T08:19:57.319Z,-3.57
2019-01-24T08:21:03.318Z,-3.59
2019-01-24T08:22:08.981Z,-3.57
2019-01-24T08:23:15.350Z,-3.56
2019-01-24T08:24:21.737Z,-3.52
2019-01-24T08:25:27.439Z,-3.52
2019-01-24T08:26:33.739Z,-3.52
2019-01-24T08:27:39.729Z,-3.48
2019-01-24T08:28:45.717Z,-3.40
2019-01-24T08:29:52.178Z,-3.43
2019-01-24T08:30:58.489Z,-3.44
2019-01-24T08:32:04.098Z,-3.36
2019-01-24T08:33:10.485Z,-3.43
2019-01-24T08:34:16.821Z,-3.46
2019-01-24T08:35:22.445Z,-3.45
2019-01-24T08:36:28.775Z,-3.34
2019-01-24T08:37:35.172Z,-3.39
2019-01-24T08:38:41.570Z,-3.37
2019-01-24T08:39:47.917Z,-3.44
2019-01-24T08:40:54.258Z,-3.42
2019-01-24T08:42:00.604Z,-3.41
2019-01-24T08:43:07.019Z,-3.43
2019-01-24T08:44:13.355Z,-3.41
2019-01-24T08:45:19.021Z,-3.43
2019-01-24T08:46:25.355Z,-3.45
2019-01-24T08:47:31.710Z,-3.44
2019-01-24T08:48:38.086Z,-3.43
2019-01-24T08:49:44.508Z,-3.43
2019-01-24T08:50:50.868Z,-3.41
2019-01-24T08:51:57.198Z,-3.41
2019-01-24T08:53:03.592Z,-3.41
2019-01-24T08:54:09.939Z,-3.44
2019-01-24T08:55:17.021Z,-3.41
2019-01-24T08:56:23.376Z,-3.42
2019-01-24T08:57:29.675Z,-3.40
2019-01-24T08:58:36.070Z,-3.43
2019-01-24T08:59:42.433Z,-3.36
2019-01-24T09:00:48.428Z,-3.35
2019-01-24T09:01:55.578Z,-3.37
2019-01-24T09:03:01.983Z,-3.36
2019-01-24T09:04:08.363Z,-3.24
2019-01-24T09:05:14.011Z,-3.28
2019-01-24T09:06:22.618Z,-3.27
2019-01-24T09:07:26.433Z,-3.21
2019-01-24T09:08:32.185Z,-3.27
2019-01-24T09:09:38.554Z,-3.34
2019-01-24T09:10:44.594Z,-3.33
2019-01-24T09:11:50.882Z,-3.29
2019-01-24T09:12:56.949Z,-3.27
2019-01-24T09:14:02.709Z,-3.26
2019-01-24T09:15:08.366Z,-3.25
2019-01-24T09:16:14.742Z,-3.23
2019-01-24T09:17:21.163Z,-3.24
2019-01-24T09:18:27.240Z,-3.19
2019-01-24T09:19:33.635Z,-3.18
2019-01-24T09:20:40.001Z,-3.17
2019-01-24T09:21:46.457Z,-3.20
2019-01-24T09:22:55.269Z,-3.26
2019-01-24T09:23:58.187Z,-3.28
2019-01-24T09:25:03.918Z,-3.28
2019-01-24T09:26:09.990Z,-3.24
2019-01-24T09:27:16.352Z,-3.21
2019-01-24T09:28:22.717Z,-3.16
2019-01-24T09:29:29.045Z,-3.18
2019-01-24T09:30:35.414Z,-3.18
2019-01-24T09:31:41.746Z,-3.13
2019-01-24T09:32:48.147Z,-3.18
2019-01-24T09:33:54.574Z,-3.18
2019-01-24T09:35:00.999Z,-3.17
2019-01-24T09:36:07.009Z,-3.17
2019-01-24T09:37:13.347Z,-3.15
2019-01-24T09:38:19.674Z,-3.17
2019-01-24T09:39:26.148Z,-3.16
2019-01-24T09:40:32.504Z,-3.14
2019-01-24T09:41:38.579Z,-3.09
2019-01-24T09:42:44.285Z,-3.10
2019-01-24T09:43:50.658Z,-3.08
2019-01-24T09:44:57.059Z,-3.09
2019-01-24T09:46:03.363Z,-3.12
2019-01-24T09:47:09.767Z,-3.11
2019-01-24T09:48:15.745Z,-3.10
2019-01-24T09:49:22.093Z,-3.12
2019-01-24T09:50:27.816Z,-3.10
2019-01-24T09:51:34.193Z,-3.05
2019-01-24T09:52:40.549Z,-2.96
2019-01-24T09:53:46.904Z,-2.94
2019-01-24T09:54:53.250Z,-3.01
2019-01-24T09:55:59.602Z,-3.03
2019-01-24T09:57:05.253Z,-2.91
2019-01-24T09:58:11.720Z,-2.97
2019-01-24T09:59:18.063Z,-2.94
2019-01-24T10:00:24.428Z,-2.97
2019-01-24T10:01:30.516Z,-3.07
2019-01-24T10:02:36.891Z,-3.06
2019-01-24T10:03:43.298Z,-3.05
2019-01-24T10:04:49.796Z,-3.10
2019-01-24T10:05:56.313Z,-3.09
2019-01-24T10:07:02.709Z,-3.08
2019-01-24T10:08:08.409Z,-3.03
2019-01-24T10:09:14.871Z,-2.96
2019-01-24T10:10:20.537Z,-2.93
2019-01-24T10:11:26.880Z,-2.92
2019-01-24T10:12:33.188Z,-2.86
2019-01-24T10:13:39.571Z,-2.88
2019-01-24T10:14:45.969Z,-2.93
2019-01-24T10:15:52.327Z,-2.95
2019-01-24T10:16:58.671Z,-2.97
2019-01-24T10:18:04.640Z,-3.05
2019-01-24T10:19:10.655Z,-2.94
2019-01-24T10:20:17.296Z,-2.93
2019-01-24T10:21:23.642Z,-3.00
2019-01-24T10:22:29.970Z,-3.03
2019-01-24T10:23:36.386Z,-3.00
2019-01-24T10:24:42.732Z,-3.02
2019-01-24T10:25:49.810Z,-3.01
2019-01-24T10:26:57.084Z,-3.01
2019-01-24T10:28:03.088Z,-3.02
2019-01-24T10:29:09.441Z,-3.00
2019-01-24T10:30:15.765Z,-2.96
2019-01-24T10:31:22.390Z,-3.01
2019-01-24T10:32:28.794Z,-3.01
2019-01-24T10:33:35.208Z,-2.94
2019-01-24T10:34:41.223Z,-2.96
2019-01-24T10:35:47.348Z,-2.83
2019-01-24T10:36:53.657Z,-2.89
2019-01-24T10:37:59.995Z,-2.91
2019-01-24T10:39:05.713Z,-2.89
2019-01-24T10:40:14.937Z,-2.92
2019-01-24T10:41:21.356Z,-2.90
2019-01-24T10:42:27.382Z,-2.93
2019-01-24T10:43:33.390Z,-2.90
2019-01-24T10:44:39.776Z,-2.90
2019-01-24T10:45:46.186Z,-2.88
2019-01-24T10:46:53.239Z,-2.93
2019-01-24T10:47:59.826Z,-2.91
2019-01-24T10:49:05.948Z,-2.92
2019-01-24T10:50:11.655Z,-2.89
2019-01-24T10:51:17.982Z,-2.89
2019-01-24T10:52:24.379Z,-2.84
2019-01-24T10:53:30.696Z,-2.84
2019-01-24T10:54:37.075Z,-2.79
2019-01-24T10:55:43.122Z,-2.75
2019-01-24T10:56:49.471Z,-2.77
2019-01-24T10:57:55.086Z,-2.79
2019-01-24T10:59:01.461Z,-2.76
2019-01-24T11:00:07.943Z,-2.80
2019-01-24T11:01:14.311Z,-2.83
2019-01-24T11:02:20.725Z,-2.80
2019-01-24T11:03:27.171Z,-2.79
2019-01-24T11:04:33.571Z,-2.74
2019-01-24T11:05:39.905Z,-2.73
2019-01-24T11:06:50.033Z,-2.61
2019-01-24T11:07:53.108Z,-2.63
2019-01-24T11:09:00.018Z,-2.65
2019-01-24T11:10:05.689Z,-2.69
2019-01-24T11:11:11.685Z,-2.77
2019-01-24T11:12:18.078Z,-2.78
2019-01-24T11:13:24.165Z,-2.81
2019-01-24T11:14:30.228Z,-2.82
2019-01-24T11:15:36.231Z,-2.86
2019-01-24T11:16:42.592Z,-2.83
2019-01-24T11:17:48.592Z,-2.75
2019-01-24T11:18:54.604Z,-2.73
2019-01-24T11:20:00.979Z,-2.71
2019-01-24T11:21:07.349Z,-2.62
2019-01-24T11:22:13.340Z,-2.61
2019-01-24T11:23:19.321Z,-2.61
2019-01-24T11:24:25.770Z,-2.66
2019-01-24T11:25:31.830Z,-2.70
2019-01-24T11:26:37.900Z,-2.71
2019-01-24T11:27:44.277Z,-2.68
2019-01-24T11:28:50.660Z,-2.70
2019-01-24T11:29:57.272Z,-2.76
2019-01-24T11:31:03.702Z,-2.76
2019-01-24T11:32:10.043Z,-2.78
2019-01-24T11:33:16.403Z,-2.72
2019-01-24T11:34:22.770Z,-2.62
2019-01-24T11:35:31.165Z,-2.62
2019-01-24T11:36:37.475Z,-2.59
2019-01-24T11:37:43.868Z,-2.65
2019-01-24T11:38:50.230Z,-2.65
2019-01-24T11:39:56.639Z,-2.68
2019-01-24T11:41:02.267Z,-2.67
2019-01-24T11:42:08.245Z,-2.67
2019-01-24T11:43:14.594Z,-2.66
2019-01-24T11:44:20.973Z,-2.55
2019-01-24T11:45:27.252Z,-2.59
2019-01-24T11:46:33.569Z,-2.61
2019-01-24T11:47:39.555Z,-2.63
2019-01-24T11:48:45.862Z,-2.66
2019-01-24T11:49:52.285Z,-2.58
2019-01-24T11:50:58.336Z,-2.60
2019-01-24T11:52:04.303Z,-2.63
2019-01-24T11:53:10.673Z,-2.58
2019-01-24T11:54:17.247Z,-2.55
2019-01-24T11:55:23.273Z,-2.54
2019-01-24T11:56:29.644Z,-2.51
2019-01-24T11:57:35.985Z,-2.54
2019-01-24T11:58:42.388Z,-2.53
2019-01-24T11:59:48.806Z,-2.52
2019-01-24T12:00:55.023Z,-2.52
2019-01-24T12:02:01.343Z,-2.53
2019-01-24T12:03:07.000Z,-2.62
2019-01-24T12:04:13.350Z,-2.63
2019-01-24T12:05:19.010Z,-2.65
2019-01-24T12:06:25.426Z,-2.63
2019-01-24T12:07:31.999Z,-2.63
2019-01-24T12:08:38.296Z,-2.65
2019-01-24T12:09:44.811Z,-2.66
2019-01-24T12:10:51.320Z,-2.66
2019-01-24T12:11:57.844Z,-2.51
2019-01-24T12:13:03.850Z,-2.54
2019-01-24T12:14:10.933Z,-2.52
2019-01-24T12:15:17.796Z,-2.57
2019-01-24T12:16:24.167Z,-2.55
2019-01-24T12:17:30.496Z,-2.57
2019-01-24T12:18:37.443Z,-2.65
2019-01-24T12:19:43.785Z,-2.67
2019-01-24T12:20:50.257Z,-2.67
2019-01-24T12:21:56.620Z,-2.63
2019-01-24T12:23:03.009Z,-2.62
2019-01-24T12:24:09.358Z,-2.55
2019-01-24T12:25:15.397Z,-2.63
2019-01-24T12:26:21.758Z,-2.61
2019-01-24T12:27:27.877Z,-2.70
2019-01-24T12:28:34.333Z,-2.70
2019-01-24T12:29:40.762Z,-2.64
2019-01-24T12:30:47.119Z,-2.59
2019-01-24T12:31:53.462Z,-2.53
2019-01-24T12:32:59.113Z,-2.53
2019-01-24T12:34:05.197Z,-2.55
2019-01-24T12:35:12.150Z,-2.57
2019-01-24T12:36:19.508Z,-2.60
2019-01-24T12:37:25.506Z,-2.58
2019-01-24T12:38:31.990Z,-2.66
2019-01-24T12:39:38.387Z,-2.65
2019-01-24T12:40:44.703Z,-2.57
2019-01-24T12:41:51.042Z,-2.55
2019-01-24T12:42:57.491Z,-2.56
2019-01-24T12:44:03.172Z,-2.58
2019-01-24T12:45:12.150Z,-2.54
2019-01-24T12:46:18.234Z,-2.53
2019-01-24T12:47:24.577Z,-2.56
2019-01-24T12:48:30.934Z,-2.56
2019-01-24T12:49:37.278Z,-2.52
2019-01-24T12:50:43.616Z,-2.52
2019-01-24T12:51:50.044Z,-2.55
2019-01-24T12:52:55.731Z,-2.59
2019-01-24T12:54:02.127Z,-2.55
2019-01-24T12:55:08.010Z,-2.53
2019-01-24T12:56:14.952Z,-2.52
2019-01-24T12:57:21.697Z,-2.52
2019-01-24T12:58:28.868Z,-2.57
2019-01-24T12:59:35.261Z,-2.59
2019-01-24T13:00:44.533Z,-2.54
2019-01-24T13:01:50.848Z,-2.52
2019-01-24T13:02:56.841Z,-2.53
2019-01-24T13:04:03.147Z,-2.54
2019-01-24T13:05:08.790Z,-2.63
2019-01-24T13:06:15.129Z,-2.65
2019-01-24T13:07:21.149Z,-2.65
2019-01-24T13:08:27.583Z,-2.62
2019-01-24T13:09:33.990Z,-2.65
2019-01-24T13:10:40.405Z,-2.67
2019-01-24T13:11:46.796Z,-2.66
2019-01-24T13:12:53.134Z,-2.69
2019-01-24T13:13:59.505Z,-2.70
2019-01-24T13:15:05.203Z,-2.60
2019-01-24T13:16:11.231Z,-2.62
2019-01-24T13:17:17.645Z,-2.65
2019-01-24T13:18:24.069Z,-2.65
2019-01-24T13:19:31.307Z,-2.66
2019-01-24T13:20:38.291Z,-2.66
2019-01-24T13:21:44.713Z,-2.63
2019-01-24T13:22:51.073Z,-2.56
2019-01-24T13:23:57.484Z,-2.52
2019-01-24T13:25:03.472Z,-2.44
2019-01-24T13:26:09.795Z,-2.55
2019-01-24T13:27:16.197Z,-2.58
2019-01-24T13:28:22.572Z,-2.60
2019-01-24T13:29:28.689Z,-2.61
2019-01-24T13:30:34.374Z,-2.55
2019-01-24T13:31:40.769Z,-2.48
2019-01-24T13:32:47.120Z,-2.56
2019-01-24T13:33:53.575Z,-2.57
2019-01-24T13:35:00.014Z,-2.59
2019-01-24T13:36:06.019Z,-2.64
2019-01-24T13:37:12.348Z,-2.58
2019-01-24T13:38:18.651Z,-2.61
2019-01-24T13:39:25.068Z,-2.63
2019-01-24T13:40:30.765Z,-2.62
2019-01-24T13:41:42.464Z,-2.64
2019-01-24T13:42:43.546Z,-2.65
2019-01-24T13:43:49.942Z,-2.64
2019-01-24T13:44:56.271Z,-2.70
2019-01-24T13:46:02.618Z,-2.67
2019-01-24T13:47:08.636Z,-2.63
2019-01-24T13:48:15.050Z,-2.60
2019-01-24T13:49:21.451Z,-2.67
2019-01-24T13:50:27.819Z,-2.73
2019-01-24T13:51:34.122Z,-2.74
2019-01-24T13:52:40.551Z,-2.70
2019-01-24T13:53:47.001Z,-2.67
2019-01-24T13:54:52.996Z,-2.63
2019-01-24T13:55:59.488Z,-2.60
2019-01-24T13:57:05.830Z,-2.67
2019-01-24T13:58:11.879Z,-2.73
2019-01-24T13:59:18.254Z,-2.75
2019-01-24T14:00:23.886Z,-2.66
2019-01-24T14:01:29.879Z,-2.64
2019-01-24T14:02:37.305Z,-2.67
2019-01-24T14:03:43.674Z,-2.69
2019-01-24T14:04:50.070Z,-2.69
2019-01-24T14:05:56.463Z,-2.71
2019-01-24T14:07:02.841Z,-2.69
2019-01-24T14:08:08.867Z,-2.71
2019-01-24T14:09:15.248Z,-2.75
2019-01-24T14:10:21.279Z,-2.78
2019-01-24T14:11:27.716Z,-2.75
2019-01-24T14:12:34.077Z,-2.77
2019-01-24T14:13:40.439Z,-2.76